Time;durP1;ratioP1;P1;durP2;ratioP2;P2;SDS_P1;SDS_P2;PMS_P1;PMS_P2;Temp;Humidity;BMP_temperature;BMP_pressure;BME280_temperature;BME280_humidity;BME280_pressure;Samples;Min_cycle;Max_cycle;Signal;HPM_P1;HPM_P2
2023/09/07 00:01:19;;;;;;;9.82;7.60;;;;;;;;;;5103215;28;20058;-58
2023/09/07 00:03:45;;;;;;;10.57;7.88;;;;;;;;;;5096577;28;20046;-58
2023/09/07 00:06:11;;;;;;;10.20;7.47;;;;;;;;;;5093494;28;20461;-58
2023/09/07 00:08:37;;;;;;;9.43;7.50;;;;;;;;;;5093848;28;20020;-58
2023/09/07 00:11:07;;;;;;;10.88;7.63;;;;;;;;;;5093686;28;20093;-59
2023/09/07 00:13:33;;;;;;;10.02;7.53;;;;;;;;;;5125966;27;20047;-58
2023/09/07 00:16:03;;;;;;;10.82;8.00;;;;;;;;;;5100479;28;20521;-58
2023/09/07 00:18:29;;;;;;;10.15;6.97;;;;;;;;;;5094023;28;20346;-58
2023/09/07 00:20:55;;;;;;;12.27;8.57;;;;;;;;;;5122767;27;20383;-58
2023/09/07 00:23:22;;;;;;;11.10;7.20;;;;;;;;;;5107320;28;20020;-59
2023/09/07 00:25:48;;;;;;;8.75;7.85;;;;;;;;;;5093610;28;20110;-59
2023/09/07 00:28:14;;;;;;;7.28;6.55;;;;;;;;;;5122505;27;20362;-58
2023/09/07 00:30:40;;;;;;;11.38;7.57;;;;;;;;;;5101475;28;20039;-57
2023/09/07 00:33:06;;;;;;;14.05;7.25;;;;;;;;;;5099860;27;20019;-59
2023/09/07 00:35:32;;;;;;;12.90;7.35;;;;;;;;;;5116034;27;20059;-59
2023/09/07 00:37:58;;;;;;;9.57;6.43;;;;;;;;;;5095182;27;20028;-58
2023/09/07 00:40:26;;;;;;;12.23;8.48;;;;;;;;;;5120073;27;20054;-59
2023/09/07 00:42:52;;;;;;;7.82;7.00;;;;;;;;;;5113038;27;20035;-59
2023/09/07 00:45:18;;;;;;;12.32;7.95;;;;;;;;;;5120620;27;20023;-59
2023/09/07 00:47:44;;;;;;;11.85;8.18;;;;;;;;;;5112580;27;20043;-59
2023/09/07 00:50:13;;;;;;;13.07;8.63;;;;;;;;;;5113499;28;20035;-58
2023/09/07 00:52:40;;;;;;;17.10;7.90;;;;;;;;;;5108496;28;20072;-58
2023/09/07 00:55:07;;;;;;;11.43;7.75;;;;;;;;;;5108869;28;20435;-59
2023/09/07 00:57:33;;;;;;;9.77;7.63;;;;;;;;;;5111038;28;20477;-59
2023/09/07 00:59:59;;;;;;;10.63;7.72;;;;;;;;;;5104373;28;20085;-58
2023/09/07 01:02:25;;;;;;;12.27;7.60;;;;;;;;;;5107186;28;20035;-59
2023/09/07 01:04:52;;;;;;;8.50;7.18;;;;;;;;;;5113180;28;20022;-59
2023/09/07 01:07:24;;;;;;;9.35;7.10;;;;;;;;;;5104575;28;20023;-59
2023/09/07 01:09:52;;;;;;;11.20;7.47;;;;;;;;;;5102937;28;20032;-59
2023/09/07 01:12:18;;;;;;;7.82;7.03;;;;;;;;;;5112561;28;20024;-58
2023/09/07 01:14:45;;;;;;;11.60;7.43;;;;;;;;;;5109448;28;20099;-58
2023/09/07 01:17:13;;;;;;;7.82;7.03;;;;;;;;;;5100323;28;20380;-58
2023/09/07 01:19:39;;;;;;;8.38;6.93;;;;;;;;;;5098942;28;20031;-59
2023/09/07 01:22:06;;;;;;;9.63;6.63;;;;;;;;;;5104848;28;20024;-59
2023/09/07 01:24:35;;;;;;;9.77;6.60;;;;;;;;;;5106469;28;20038;-59
2023/09/07 01:27:03;;;;;;;7.60;6.90;;;;;;;;;;5105655;28;20020;-59
2023/09/07 01:29:29;;;;;;;10.93;7.40;;;;;;;;;;5092146;28;20019;-58
2023/09/07 01:31:55;;;;;;;13.52;7.50;;;;;;;;;;5121288;28;20023;-59
2023/09/07 01:34:21;;;;;;;12.85;7.63;;;;;;;;;;5092987;28;20036;-59
2023/09/07 01:36:47;;;;;;;9.32;6.82;;;;;;;;;;5119725;28;20039;-60
2023/09/07 01:39:13;;;;;;;9.65;7.10;;;;;;;;;;5092635;28;20386;-59
2023/09/07 01:41:39;;;;;;;10.40;7.05;;;;;;;;;;5122308;28;20023;-59
2023/09/07 01:44:05;;;;;;;10.13;7.05;;;;;;;;;;5105825;28;20012;-59
2023/09/07 01:46:31;;;;;;;10.88;7.35;;;;;;;;;;5119391;28;20388;-59
2023/09/07 01:48:57;;;;;;;9.65;7.40;;;;;;;;;;5108569;28;20375;-59
2023/09/07 01:51:27;;;;;;;8.40;6.40;;;;;;;;;;5092441;28;20490;-59
2023/09/07 01:53:53;;;;;;;9.80;7.47;;;;;;;;;;5122300;28;20365;-59
2023/09/07 01:56:19;;;;;;;9.57;7.40;;;;;;;;;;5092655;28;20032;-59
2023/09/07 01:58:45;;;;;;;9.27;6.82;;;;;;;;;;5092413;28;20402;-58
2023/09/07 02:01:21;;;;;;;10.50;7.80;;;;;;;;;;5092380;28;20462;-59
2023/09/07 02:03:48;;;;;;;9.45;6.95;;;;;;;;;;5092220;28;20035;-59
2023/09/07 02:06:14;;;;;;;8.60;7.32;;;;;;;;;;5105872;28;20099;-59
2023/09/07 02:08:40;;;;;;;9.00;6.47;;;;;;;;;;5112745;28;20060;-58
2023/09/07 02:11:06;;;;;;;8.38;6.57;;;;;;;;;;5111890;28;20039;-58
2023/09/07 02:13:32;;;;;;;7.40;6.55;;;;;;;;;;5132241;28;20042;-59
2023/09/07 02:15:58;;;;;;;10.10;7.13;;;;;;;;;;5118507;28;20024;-58
2023/09/07 02:18:24;;;;;;;8.25;6.43;;;;;;;;;;5113452;28;20028;-59
2023/09/07 02:20:50;;;;;;;7.72;6.28;;;;;;;;;;5092315;28;20035;-59
2023/09/07 02:23:16;;;;;;;8.02;7.00;;;;;;;;;;5090968;28;20103;-60
2023/09/07 02:25:43;;;;;;;8.18;6.70;;;;;;;;;;5120395;28;20107;-60
2023/09/07 02:28:09;;;;;;;13.25;6.53;;;;;;;;;;5092678;28;20048;-59
2023/09/07 02:30:35;;;;;;;9.68;7.13;;;;;;;;;;5095507;28;20509;-59
2023/09/07 02:33:00;;;;;;;11.90;6.45;;;;;;;;;;5095103;28;20091;-59
2023/09/07 02:35:26;;;;;;;10.73;6.00;;;;;;;;;;5096014;28;20470;-59
2023/09/07 02:37:52;;;;;;;13.10;6.93;;;;;;;;;;5095772;28;20073;-59
2023/09/07 02:40:18;;;;;;;9.73;6.65;;;;;;;;;;5095613;28;20103;-59
2023/09/07 02:42:44;;;;;;;7.47;6.53;;;;;;;;;;5109225;28;20023;-59
2023/09/07 02:45:15;;;;;;;10.20;6.70;;;;;;;;;;5095851;28;20024;-59
2023/09/07 02:47:41;;;;;;;7.95;6.53;;;;;;;;;;5095248;28;20054;-58
2023/09/07 02:50:07;;;;;;;8.35;6.53;;;;;;;;;;5095505;28;20122;-58
2023/09/07 02:52:33;;;;;;;9.25;5.82;;;;;;;;;;5095325;28;20470;-58
2023/09/07 02:54:59;;;;;;;7.95;6.47;;;;;;;;;;5085402;27;20028;-59
2023/09/07 02:57:25;;;;;;;9.77;6.82;;;;;;;;;;5119481;27;20020;-58
2023/09/07 02:59:52;;;;;;;9.60;6.60;;;;;;;;;;5095665;28;20024;-58
2023/09/07 03:02:18;;;;;;;8.73;6.63;;;;;;;;;;5108980;28;20386;-58
2023/09/07 03:04:44;;;;;;;7.03;5.95;;;;;;;;;;5095478;28;20020;-58
2023/09/07 03:07:10;;;;;;;8.55;6.60;;;;;;;;;;5095191;28;20051;-59
2023/09/07 03:09:37;;;;;;;8.57;6.90;;;;;;;;;;5095036;28;20020;-59
2023/09/07 03:12:03;;;;;;;9.65;6.68;;;;;;;;;;5097749;28;20088;-59
2023/09/07 03:14:29;;;;;;;10.43;7.25;;;;;;;;;;5106160;28;20024;-59
2023/09/07 03:16:55;;;;;;;9.10;6.95;;;;;;;;;;5109386;28;20034;-60
2023/09/07 03:19:21;;;;;;;9.00;6.97;;;;;;;;;;5109066;28;20027;-58
2023/09/07 03:21:47;;;;;;;10.48;6.88;;;;;;;;;;5094965;28;20378;-58
2023/09/07 03:24:15;;;;;;;14.38;6.55;;;;;;;;;;5095043;28;20206;-58
2023/09/07 03:26:41;;;;;;;9.00;7.07;;;;;;;;;;5094849;28;20021;-58
2023/09/07 03:29:07;;;;;;;7.43;6.72;;;;;;;;;;5080382;28;20024;-58
2023/09/07 03:31:33;;;;;;;8.93;6.47;;;;;;;;;;5094566;28;20067;-59
2023/09/07 03:33:59;;;;;;;7.07;6.35;;;;;;;;;;5094528;28;20107;-58
2023/09/07 03:36:25;;;;;;;9.60;7.20;;;;;;;;;;5094752;28;20020;-58
2023/09/07 03:38:51;;;;;;;7.63;6.90;;;;;;;;;;5094560;28;20026;-57
2023/09/07 03:41:17;;;;;;;11.50;7.70;;;;;;;;;;5093550;28;20024;-58
2023/09/07 03:43:43;;;;;;;9.32;7.60;;;;;;;;;;5094383;28;20024;-58
2023/09/07 03:46:09;;;;;;;11.98;7.65;;;;;;;;;;5094317;28;20028;-57
2023/09/07 03:48:35;;;;;;;10.77;7.70;;;;;;;;;;5094247;28;20093;-58
2023/09/07 03:51:01;;;;;;;8.60;6.75;;;;;;;;;;5093987;28;20126;-58
2023/09/07 03:53:27;;;;;;;9.27;8.10;;;;;;;;;;5089708;28;20012;-58
2023/09/07 03:55:53;;;;;;;10.90;7.65;;;;;;;;;;5094273;28;20031;-58
2023/09/07 03:58:19;;;;;;;9.52;7.80;;;;;;;;;;5094081;28;20024;-58
2023/09/07 04:00:45;;;;;;;10.40;7.63;;;;;;;;;;5094253;28;20099;-59
2023/09/07 04:03:11;;;;;;;8.55;7.40;;;;;;;;;;5094001;28;20039;-59
2023/09/07 04:05:38;;;;;;;8.82;7.30;;;;;;;;;;5094134;28;20469;-59
2023/09/07 04:08:04;;;;;;;8.43;7.30;;;;;;;;;;5094840;28;20024;-58
2023/09/07 04:10:30;;;;;;;8.63;7.72;;;;;;;;;;5110585;27;20102;-59
2023/09/07 04:12:56;;;;;;;10.18;8.00;;;;;;;;;;5117730;27;20111;-59
2023/09/07 04:15:22;;;;;;;9.02;7.13;;;;;;;;;;5112770;27;20844;-59
2023/09/07 04:17:50;;;;;;;9.32;7.30;;;;;;;;;;5106105;28;20065;-58
2023/09/07 04:20:17;;;;;;;13.48;7.90;;;;;;;;;;5103473;28;20102;-59
2023/09/07 04:22:43;;;;;;;7.40;6.63;;;;;;;;;;5120676;27;20023;-59
2023/09/07 04:25:09;;;;;;;7.93;7.22;;;;;;;;;;5103630;27;20016;-57
2023/09/07 04:27:35;;;;;;;11.68;7.43;;;;;;;;;;5093677;28;20458;-59
2023/09/07 04:30:01;;;;;;;10.10;7.40;;;;;;;;;;5082178;28;20032;-60
2023/09/07 04:32:27;;;;;;;12.32;8.13;;;;;;;;;;5089678;28;20027;-59
2023/09/07 04:34:59;;;;;;;11.23;7.95;;;;;;;;;;5093362;28;20377;-58
2023/09/07 04:37:25;;;;;;;10.60;7.47;;;;;;;;;;5109700;28;20103;-58
2023/09/07 04:39:54;;;;;;;10.70;7.07;;;;;;;;;;5113893;28;20106;-59
2023/09/07 04:42:21;;;;;;;13.20;8.02;;;;;;;;;;5099159;28;20073;-58
2023/09/07 04:44:50;;;;;;;10.00;8.15;;;;;;;;;;5105217;28;20020;-59
2023/09/07 04:47:16;;;;;;;12.98;7.57;;;;;;;;;;5093125;28;20056;-59
2023/09/07 04:49:42;;;;;;;7.80;6.93;;;;;;;;;;5110634;28;20026;-59
2023/09/07 04:52:09;;;;;;;8.65;7.75;;;;;;;;;;5103908;28;20099;-59
2023/09/07 04:54:35;;;;;;;13.55;8.75;;;;;;;;;;5093073;28;20514;-58
2023/09/07 04:57:01;;;;;;;12.30;7.68;;;;;;;;;;5093169;28;20032;-59
2023/09/07 04:59:27;;;;;;;12.85;7.47;;;;;;;;;;5093202;28;20107;-59
2023/09/07 05:01:53;;;;;;;10.48;7.68;;;;;;;;;;5093224;28;20020;-59
2023/09/07 05:04:19;;;;;;;8.23;7.10;;;;;;;;;;5092978;28;20482;-60
2023/09/07 05:06:45;;;;;;;11.27;7.60;;;;;;;;;;5092974;28;20020;-60
2023/09/07 05:09:11;;;;;;;9.95;7.18;;;;;;;;;;5085123;28;20104;-60
2023/09/07 05:11:37;;;;;;;10.77;7.65;;;;;;;;;;5098789;28;20477;-60
2023/09/07 05:14:03;;;;;;;7.97;7.18;;;;;;;;;;5092961;28;20024;-60
2023/09/07 05:16:29;;;;;;;11.02;8.35;;;;;;;;;;5093225;28;20110;-60
2023/09/07 05:18:55;;;;;;;9.32;7.18;;;;;;;;;;5107108;28;20488;-60
2023/09/07 05:21:21;;;;;;;11.75;7.32;;;;;;;;;;5092824;28;20065;-60
2023/09/07 05:23:47;;;;;;;8.30;7.35;;;;;;;;;;5092883;28;20016;-60
2023/09/07 05:26:13;;;;;;;11.30;7.65;;;;;;;;;;5092848;28;20489;-60
2023/09/07 05:28:43;;;;;;;10.35;7.32;;;;;;;;;;5096860;28;20351;-60
2023/09/07 05:31:09;;;;;;;13.15;9.25;;;;;;;;;;5112996;28;20036;-60
2023/09/07 05:33:35;;;;;;;14.90;9.20;;;;;;;;;;5099905;28;20112;-60
2023/09/07 05:36:01;;;;;;;14.40;9.45;;;;;;;;;;5092619;28;20028;-60
2023/09/07 05:38:27;;;;;;;12.07;9.43;;;;;;;;;;5092730;28;20020;-60
2023/09/07 05:40:54;;;;;;;10.73;9.43;;;;;;;;;;5092653;28;20474;-60
2023/09/07 05:43:20;;;;;;;11.98;9.48;;;;;;;;;;5092509;28;20024;-60
2023/09/07 05:45:47;;;;;;;16.60;10.18;;;;;;;;;;5093065;28;20035;-60
2023/09/07 05:48:13;;;;;;;14.70;9.52;;;;;;;;;;5092518;28;20037;-60
2023/09/07 05:50:39;;;;;;;11.48;10.25;;;;;;;;;;5095485;28;20111;-60
2023/09/07 05:53:05;;;;;;;15.75;10.00;;;;;;;;;;5103828;28;20066;-60
2023/09/07 05:55:31;;;;;;;13.48;8.77;;;;;;;;;;5106665;28;20470;-60
2023/09/07 05:57:58;;;;;;;13.98;9.93;;;;;;;;;;5092584;28;20020;-59
2023/09/07 06:00:24;;;;;;;14.95;10.32;;;;;;;;;;5093561;28;20024;-59
2023/09/07 06:02:50;;;;;;;13.02;9.82;;;;;;;;;;5105926;28;20035;-59
2023/09/07 06:05:16;;;;;;;11.02;8.98;;;;;;;;;;5096047;28;20077;-60
2023/09/07 06:07:43;;;;;;;12.23;9.93;;;;;;;;;;5096303;28;20052;-59
2023/09/07 06:10:10;;;;;;;16.83;9.93;;;;;;;;;;5096428;28;20043;-60
2023/09/07 06:12:36;;;;;;;12.05;10.13;;;;;;;;;;5099437;28;20049;-60
2023/09/07 06:15:02;;;;;;;14.10;9.60;;;;;;;;;;5106882;28;20020;-60
2023/09/07 06:17:28;;;;;;;12.85;9.45;;;;;;;;;;5095945;28;20055;-59
2023/09/07 06:19:55;;;;;;;12.27;10.00;;;;;;;;;;5096147;28;20052;-60
2023/09/07 06:22:21;;;;;;;12.63;10.50;;;;;;;;;;5104185;28;20035;-60
2023/09/07 06:24:47;;;;;;;12.18;10.32;;;;;;;;;;5130784;27;20020;-61
2023/09/07 06:27:13;;;;;;;15.48;11.05;;;;;;;;;;5110273;28;20024;-61
2023/09/07 06:29:39;;;;;;;14.40;10.45;;;;;;;;;;5089798;28;20031;-61
2023/09/07 06:32:05;;;;;;;19.63;11.80;;;;;;;;;;5096157;28;20028;-60
2023/09/07 06:34:31;;;;;;;14.10;10.10;;;;;;;;;;5101672;28;20104;-60
2023/09/07 06:36:57;;;;;;;13.75;10.60;;;;;;;;;;5104119;28;20021;-59
2023/09/07 06:39:23;;;;;;;16.58;12.00;;;;;;;;;;5113780;27;20029;-65
2023/09/07 06:41:49;;;;;;;16.23;10.35;;;;;;;;;;5105891;27;20020;-55
2023/09/07 06:44:15;;;;;;;15.00;10.77;;;;;;;;;;5095495;28;20363;-55
2023/09/07 06:46:41;;;;;;;13.35;10.57;;;;;;;;;;5109712;27;20016;-60
2023/09/07 06:49:08;;;;;;;8.85;7.85;;;;;;;;;;5085600;28;20058;-63
2023/09/07 06:51:34;;;;;;;10.85;8.27;;;;;;;;;;5096768;28;20028;-67
2023/09/07 06:54:00;;;;;;;9.73;8.18;;;;;;;;;;5105348;27;20020;-59
2023/09/07 06:56:26;;;;;;;9.90;7.90;;;;;;;;;;5112015;28;20089;-60
2023/09/07 06:58:53;;;;;;;9.90;8.15;;;;;;;;;;5103244;28;20093;-59
2023/09/07 07:01:19;;;;;;;8.20;6.65;;;;;;;;;;5107994;28;20020;-60
2023/09/07 07:03:45;;;;;;;9.57;7.25;;;;;;;;;;5102326;27;20482;-61
2023/09/07 07:06:11;;;;;;;9.43;6.97;;;;;;;;;;5118321;27;20064;-53
2023/09/07 07:08:37;;;;;;;12.35;8.05;;;;;;;;;;5095012;28;20385;-56
2023/09/07 07:11:03;;;;;;;9.55;7.70;;;;;;;;;;5095247;28;20036;-56
2023/09/07 07:13:29;;;;;;;7.93;7.00;;;;;;;;;;5095090;28;20032;-57
2023/09/07 07:15:55;;;;;;;8.32;7.47;;;;;;;;;;5093944;28;20044;-55
2023/09/07 07:18:22;;;;;;;10.25;7.30;;;;;;;;;;5094899;28;20028;-55
2023/09/07 07:20:50;;;;;;;8.88;7.10;;;;;;;;;;5094929;28;20055;-58
2023/09/07 07:23:16;;;;;;;9.88;7.28;;;;;;;;;;5108820;28;20034;-57
2023/09/07 07:25:43;;;;;;;9.25;7.07;;;;;;;;;;5120924;27;20030;-57
2023/09/07 07:28:10;;;;;;;13.40;8.30;;;;;;;;;;5118532;27;20027;-57
2023/09/07 07:30:37;;;;;;;13.73;7.93;;;;;;;;;;5102149;28;20081;-57
2023/09/07 07:33:04;;;;;;;12.82;7.95;;;;;;;;;;5101250;28;20500;-55
2023/09/07 07:35:30;;;;;;;11.02;7.68;;;;;;;;;;5094570;28;20028;-54
2023/09/07 07:37:56;;;;;;;9.77;6.75;;;;;;;;;;5094810;28;20024;-56
2023/09/07 07:40:22;;;;;;;8.88;7.10;;;;;;;;;;5094649;28;20082;-54
2023/09/07 07:42:48;;;;;;;12.27;6.95;;;;;;;;;;5094774;28;20035;-57
2023/09/07 07:45:17;;;;;;;10.18;7.28;;;;;;;;;;5094305;28;20035;-54
2023/09/07 07:47:43;;;;;;;8.18;7.25;;;;;;;;;;5094336;28;20055;-53
2023/09/07 07:50:10;;;;;;;11.23;7.68;;;;;;;;;;5094375;28;20040;-55
2023/09/07 07:52:36;;;;;;;7.45;6.72;;;;;;;;;;5094656;28;20024;-51
2023/09/07 07:55:02;;;;;;;11.02;6.93;;;;;;;;;;5094740;28;20032;-54
2023/09/07 07:57:28;;;;;;;9.32;6.95;;;;;;;;;;5082042;28;20530;-53
2023/09/07 07:59:57;;;;;;;9.88;7.22;;;;;;;;;;5104027;28;20028;-52
2023/09/07 08:02:23;;;;;;;9.98;7.50;;;;;;;;;;5094362;28;20050;-56
2023/09/07 08:04:49;;;;;;;10.27;9.02;;;;;;;;;;5087063;28;20542;-55
2023/09/07 08:07:15;;;;;;;8.95;7.30;;;;;;;;;;5094021;28;20032;-56
2023/09/07 08:09:41;;;;;;;10.77;7.80;;;;;;;;;;5094037;28;20024;-57
2023/09/07 08:12:07;;;;;;;9.18;7.88;;;;;;;;;;5107547;28;20042;-54
2023/09/07 08:14:33;;;;;;;8.65;7.38;;;;;;;;;;5094602;28;20438;-53
2023/09/07 08:16:59;;;;;;;11.05;7.38;;;;;;;;;;5094318;28;20114;-53
2023/09/07 08:19:27;;;;;;;8.15;6.97;;;;;;;;;;5093853;28;20012;-53
2023/09/07 08:21:53;;;;;;;9.32;7.45;;;;;;;;;;5098327;28;20057;-56
2023/09/07 08:24:19;;;;;;;9.65;6.07;;;;;;;;;;5103982;28;20435;-56
2023/09/07 08:26:47;;;;;;;7.38;5.47;;;;;;;;;;5093678;28;20185;-53
2023/09/07 08:29:13;;;;;;;9.70;5.70;;;;;;;;;;5093657;28;20051;-56
2023/09/07 08:31:39;;;;;;;8.27;5.70;;;;;;;;;;5122164;27;20034;-54
2023/09/07 08:34:06;;;;;;;6.82;4.97;;;;;;;;;;5093891;28;20037;-56
2023/09/07 08:36:37;;;;;;;8.52;4.97;;;;;;;;;;5093892;28;20385;-56
2023/09/07 08:39:08;;;;;;;6.78;5.00;;;;;;;;;;5081595;28;20016;-56
2023/09/07 08:41:43;;;;;;;9.63;5.32;;;;;;;;;;5083053;28;20119;-58
2023/09/07 08:44:15;;;;;;;7.13;5.15;;;;;;;;;;5093342;28;20016;-55
2023/09/07 08:46:41;;;;;;;7.95;5.07;;;;;;;;;;5093457;28;20386;-57
2023/09/07 08:49:08;;;;;;;6.38;5.03;;;;;;;;;;5093272;28;20016;-57
2023/09/07 08:51:38;;;;;;;8.95;5.63;;;;;;;;;;5093797;28;20036;-57
2023/09/07 08:54:05;;;;;;;8.23;6.55;;;;;;;;;;5096635;28;20030;-54
2023/09/07 08:56:31;;;;;;;7.90;6.05;;;;;;;;;;5104272;28;20056;-52
2023/09/07 08:58:57;;;;;;;7.00;5.38;;;;;;;;;;5107311;28;20024;-55
2023/09/07 09:01:23;;;;;;;7.22;6.03;;;;;;;;;;5093077;28;20424;-57
2023/09/07 09:03:50;;;;;;;9.90;6.88;;;;;;;;;;5105992;28;20076;-55
2023/09/07 09:06:20;;;;;;;8.20;6.47;;;;;;;;;;5102741;28;20020;-53
2023/09/07 09:08:50;;;;;;;11.40;7.25;;;;;;;;;;5107390;28;20016;-54
2023/09/07 09:11:17;;;;;;;7.93;5.43;;;;;;;;;;5092889;28;20139;-56
2023/09/07 09:13:43;;;;;;;9.90;6.40;;;;;;;;;;5079007;28;20024;-56
2023/09/07 09:16:09;;;;;;;9.77;5.38;;;;;;;;;;5092967;28;20077;-58
2023/09/07 09:18:36;;;;;;;8.10;6.10;;;;;;;;;;5092927;28;20081;-55
2023/09/07 09:21:02;;;;;;;8.30;6.88;;;;;;;;;;5093193;28;20370;-52
2023/09/07 09:23:37;;;;;;;7.68;5.57;;;;;;;;;;5091603;28;20019;-55
2023/09/07 09:26:05;;;;;;;5.75;5.25;;;;;;;;;;5092886;28;20078;-51
2023/09/07 09:28:34;;;;;;;7.03;5.32;;;;;;;;;;5077704;28;20039;-57
2023/09/07 09:31:01;;;;;;;7.25;6.50;;;;;;;;;;5092889;28;20157;-54
2023/09/07 09:33:30;;;;;;;7.90;7.10;;;;;;;;;;5092643;28;20486;-58
2023/09/07 09:35:57;;;;;;;7.93;6.88;;;;;;;;;;5086770;28;20036;-56
2023/09/07 09:38:23;;;;;;;7.45;6.75;;;;;;;;;;5093473;28;20028;-58
2023/09/07 09:40:49;;;;;;;8.85;7.38;;;;;;;;;;5092775;28;20389;-56
2023/09/07 09:43:15;;;;;;;9.07;8.25;;;;;;;;;;5096681;28;20023;-57
2023/09/07 09:45:41;;;;;;;7.88;6.63;;;;;;;;;;5096943;28;20057;-56
2023/09/07 09:48:09;;;;;;;9.63;8.23;;;;;;;;;;5096483;28;20114;-54
2023/09/07 09:50:37;;;;;;;8.05;6.57;;;;;;;;;;5096291;28;20363;-56
2023/09/07 09:53:09;;;;;;;8.20;6.68;;;;;;;;;;5096918;28;20020;-57
2023/09/07 09:55:35;;;;;;;13.05;7.05;;;;;;;;;;5096620;28;20023;-57
2023/09/07 09:58:01;;;;;;;12.55;8.25;;;;;;;;;;5096515;28;20020;-56
2023/09/07 10:00:29;;;;;;;10.63;8.73;;;;;;;;;;5110602;28;20099;-56
2023/09/07 10:03:13;;;;;;;9.30;8.27;;;;;;;;;;5096316;28;20103;-56
2023/09/07 10:05:40;;;;;;;7.55;6.75;;;;;;;;;;5096430;28;20412;-53
2023/09/07 10:08:16;;;;;;;7.85;7.15;;;;;;;;;;5096309;28;20016;-57
2023/09/07 10:10:43;;;;;;;6.00;5.45;;;;;;;;;;5096179;28;20042;-57
2023/09/07 10:13:09;;;;;;;8.05;6.53;;;;;;;;;;5096219;28;20095;-55
2023/09/07 10:15:38;;;;;;;8.50;7.55;;;;;;;;;;5096088;28;20024;-56
2023/09/07 10:18:08;;;;;;;9.38;7.07;;;;;;;;;;5096270;28;20031;-56
2023/09/07 10:20:55;;;;;;;8.98;8.23;;;;;;;;;;5096052;28;20028;-55
2023/09/07 10:23:21;;;;;;;7.55;6.82;;;;;;;;;;5124680;27;20072;-56
2023/09/07 10:25:49;;;;;;;12.38;10.75;;;;;;;;;;5096217;28;20020;-55
2023/09/07 10:28:22;;;;;;;10.18;8.32;;;;;;;;;;5096403;28;20024;-56
2023/09/07 10:30:58;;;;;;;8.80;7.05;;;;;;;;;;5108507;28;20039;-58
2023/09/07 10:33:24;;;;;;;10.32;8.38;;;;;;;;;;5096081;28;20055;-56
2023/09/07 10:35:50;;;;;;;8.85;6.88;;;;;;;;;;5095745;28;20374;-57
2023/09/07 10:38:16;;;;;;;6.78;6.18;;;;;;;;;;5096038;28;20020;-57
2023/09/07 10:40:45;;;;;;;7.38;6.72;;;;;;;;;;5109915;28;20084;-57
2023/09/07 10:43:11;;;;;;;5.75;5.20;;;;;;;;;;5095876;28;20389;-58
2023/09/07 10:45:37;;;;;;;6.65;4.93;;;;;;;;;;5095340;28;20032;-56
2023/09/07 10:48:03;;;;;;;5.57;5.07;;;;;;;;;;5095452;28;20105;-57
2023/09/07 10:50:30;;;;;;;6.22;5.43;;;;;;;;;;5095347;28;20031;-55
2023/09/07 10:52:56;;;;;;;5.75;5.22;;;;;;;;;;5095819;28;20413;-58
2023/09/07 10:55:22;;;;;;;6.10;4.50;;;;;;;;;;5095447;28;20028;-57
2023/09/07 10:57:48;;;;;;;6.07;5.57;;;;;;;;;;5095283;28;20016;-56
2023/09/07 11:00:15;;;;;;;7.95;6.55;;;;;;;;;;5095261;28;20024;-57
2023/09/07 11:02:41;;;;;;;7.13;4.50;;;;;;;;;;5124073;27;20043;-55
2023/09/07 11:05:08;;;;;;;4.75;4.15;;;;;;;;;;5095335;28;20027;-55
2023/09/07 11:07:34;;;;;;;6.13;4.80;;;;;;;;;;5095231;28;20095;-57
2023/09/07 11:10:03;;;;;;;6.07;5.53;;;;;;;;;;5095062;28;20024;-56
2023/09/07 11:12:30;;;;;;;5.30;4.78;;;;;;;;;;5095122;28;20410;-55
2023/09/07 11:14:56;;;;;;;8.13;6.53;;;;;;;;;;5102159;28;20024;-58
2023/09/07 11:17:28;;;;;;;8.35;5.63;;;;;;;;;;5102255;28;20066;-57
2023/09/07 11:19:55;;;;;;;7.55;5.13;;;;;;;;;;5095073;28;20028;-58
2023/09/07 11:22:22;;;;;;;6.40;5.80;;;;;;;;;;5103198;28;20053;-59
2023/09/07 11:24:48;;;;;;;6.55;5.13;;;;;;;;;;5100695;28;20546;-58
2023/09/07 11:27:14;;;;;;;6.32;5.72;;;;;;;;;;5094798;27;20465;-55
2023/09/07 11:29:40;;;;;;;5.55;4.40;;;;;;;;;;5117756;27;20015;-56
2023/09/07 11:32:10;;;;;;;6.35;4.40;;;;;;;;;;5116806;27;20043;-56
2023/09/07 11:34:36;;;;;;;5.22;4.72;;;;;;;;;;5114594;28;20031;-58
2023/09/07 11:37:05;;;;;;;5.85;5.25;;;;;;;;;;5096222;28;20027;-60
2023/09/07 11:39:31;;;;;;;9.15;6.30;;;;;;;;;;5113104;28;20423;-59
2023/09/07 11:41:57;;;;;;;7.63;6.80;;;;;;;;;;5134477;27;20012;-59
2023/09/07 11:44:23;;;;;;;6.63;5.55;;;;;;;;;;5111699;27;20024;-59
2023/09/07 11:46:49;;;;;;;6.85;6.00;;;;;;;;;;5094334;28;20042;-59
2023/09/07 11:49:19;;;;;;;8.75;5.60;;;;;;;;;;5104028;28;20024;-60
2023/09/07 11:51:45;;;;;;;8.68;7.35;;;;;;;;;;5098257;28;20474;-60
2023/09/07 11:54:11;;;;;;;6.75;5.85;;;;;;;;;;5088077;28;20030;-60
2023/09/07 11:56:42;;;;;;;7.18;6.43;;;;;;;;;;5094117;28;20019;-59
2023/09/07 11:59:09;;;;;;;6.55;5.95;;;;;;;;;;5093345;28;20020;-60
2023/09/07 12:01:35;;;;;;;9.00;6.15;;;;;;;;;;5093126;28;20477;-60
2023/09/07 12:04:01;;;;;;;6.28;4.95;;;;;;;;;;5093250;28;20020;-59
2023/09/07 12:06:27;;;;;;;7.22;6.57;;;;;;;;;;5103789;28;20033;-60
2023/09/07 12:09:03;;;;;;;6.25;5.65;;;;;;;;;;5097587;28;20374;-60
2023/09/07 12:11:29;;;;;;;6.18;5.57;;;;;;;;;;5093235;28;20031;-59
2023/09/07 12:13:55;;;;;;;7.82;5.43;;;;;;;;;;5079157;28;20028;-60
2023/09/07 12:16:21;;;;;;;7.97;4.78;;;;;;;;;;5093253;28;20038;-60
2023/09/07 12:18:47;;;;;;;6.00;4.90;;;;;;;;;;5093313;28;20493;-60
2023/09/07 12:21:13;;;;;;;9.88;6.15;;;;;;;;;;5107579;28;20151;-60
2023/09/07 12:23:39;;;;;;;8.10;7.28;;;;;;;;;;5093886;28;20519;-60
2023/09/07 12:26:05;;;;;;;6.35;5.18;;;;;;;;;;5093367;28;20020;-60
2023/09/07 12:28:31;;;;;;;5.82;5.28;;;;;;;;;;5093333;28;20043;-59
2023/09/07 12:30:58;;;;;;;5.97;4.93;;;;;;;;;;5093064;28;20038;-63
2023/09/07 12:33:24;;;;;;;6.05;5.55;;;;;;;;;;5093621;28;20095;-72
2023/09/07 12:35:50;;;;;;;5.63;4.88;;;;;;;;;;5093576;28;20032;-73
2023/09/07 12:38:22;;;;;;;6.57;5.72;;;;;;;;;;5106379;27;20369;-71
2023/09/07 12:40:48;;;;;;;7.68;5.10;;;;;;;;;;5119831;27;20027;-71
2023/09/07 12:43:14;;;;;;;5.38;4.38;;;;;;;;;;5124185;27;20019;-72
2023/09/07 12:45:40;;;;;;;5.50;4.43;;;;;;;;;;5093626;28;20077;-70
2023/09/07 12:48:06;;;;;;;5.32;4.57;;;;;;;;;;5093403;28;20078;-64
2023/09/07 12:50:32;;;;;;;5.35;4.47;;;;;;;;;;5093332;28;20066;-67
2023/09/07 12:52:58;;;;;;;7.97;4.80;;;;;;;;;;5093232;28;20466;-63
2023/09/07 12:55:24;;;;;;;8.02;4.85;;;;;;;;;;5098518;27;20478;-60
2023/09/07 12:57:50;;;;;;;7.28;4.88;;;;;;;;;;5094362;28;20031;-60
2023/09/07 13:00:16;;;;;;;6.97;4.63;;;;;;;;;;5107220;28;20427;-59
2023/09/07 13:02:42;;;;;;;5.97;5.28;;;;;;;;;;5102696;28;20035;-60
2023/09/07 13:05:09;;;;;;;8.02;4.82;;;;;;;;;;5104052;28;20073;-61
2023/09/07 13:07:35;;;;;;;6.55;4.70;;;;;;;;;;5094900;27;20031;-62
2023/09/07 13:10:04;;;;;;;5.03;4.53;;;;;;;;;;5112146;28;20041;-63
2023/09/07 13:12:33;;;;;;;7.15;5.35;;;;;;;;;;5100655;28;20039;-62
2023/09/07 13:14:59;;;;;;;6.93;5.10;;;;;;;;;;5103022;28;20023;-70
2023/09/07 13:17:25;;;;;;;6.88;5.40;;;;;;;;;;5091310;28;20046;-77
2023/09/07 13:19:51;;;;;;;5.78;5.18;;;;;;;;;;5102069;28;20062;-67
2023/09/07 13:22:17;;;;;;;5.88;4.82;;;;;;;;;;5112932;28;20049;-65
2023/09/07 13:24:43;;;;;;;5.55;4.88;;;;;;;;;;5108022;28;20062;-68
2023/09/07 13:27:12;;;;;;;6.78;5.18;;;;;;;;;;5101424;28;20032;-62
2023/09/07 13:29:38;;;;;;;5.97;5.32;;;;;;;;;;5109778;28;20072;-65
2023/09/07 13:32:04;;;;;;;6.43;4.60;;;;;;;;;;5109074;28;20259;-61
2023/09/07 13:34:30;;;;;;;6.60;5.80;;;;;;;;;;5106800;28;20392;-67
2023/09/07 13:36:57;;;;;;;5.90;5.15;;;;;;;;;;5108463;28;20477;-60
2023/09/07 13:39:23;;;;;;;6.30;5.10;;;;;;;;;;5104496;28;20027;-62
2023/09/07 13:41:49;;;;;;;5.97;5.47;;;;;;;;;;5122420;28;20098;-63
2023/09/07 13:44:15;;;;;;;5.47;4.88;;;;;;;;;;5107301;28;20072;-70
2023/09/07 13:46:42;;;;;;;7.57;5.18;;;;;;;;;;5106152;28;20024;-65
2023/09/07 13:49:09;;;;;;;7.40;5.72;;;;;;;;;;5101282;28;20020;-64
2023/09/07 13:51:38;;;;;;;4.93;4.53;;;;;;;;;;5090069;28;20036;-69
2023/09/07 13:54:05;;;;;;;5.90;4.95;;;;;;;;;;5102267;28;20012;-60
2023/09/07 13:56:31;;;;;;;7.30;6.57;;;;;;;;;;5100082;28;20027;-65
2023/09/07 13:58:57;;;;;;;5.68;5.00;;;;;;;;;;5103638;28;20108;-72
2023/09/07 14:01:24;;;;;;;9.20;6.18;;;;;;;;;;5109696;28;20023;-58
2023/09/07 14:03:50;;;;;;;5.50;5.00;;;;;;;;;;5106526;28;20439;-61
2023/09/07 14:06:17;;;;;;;5.93;5.30;;;;;;;;;;5105598;28;20046;-50
2023/09/07 14:08:43;;;;;;;7.40;6.20;;;;;;;;;;5107387;28;20081;-63
2023/09/07 14:11:09;;;;;;;5.55;4.90;;;;;;;;;;5108046;28;20032;-65
2023/09/07 14:13:35;;;;;;;5.82;5.28;;;;;;;;;;5090704;28;20051;-60
2023/09/07 14:16:02;;;;;;;5.93;5.38;;;;;;;;;;5111162;28;20381;-59
2023/09/07 14:18:28;;;;;;;9.10;5.90;;;;;;;;;;5111617;28;20020;-57
2023/09/07 14:20:57;;;;;;;8.10;7.40;;;;;;;;;;5116973;28;20027;-57
2023/09/07 14:23:25;;;;;;;7.43;5.72;;;;;;;;;;5115402;28;20019;-68
2023/09/07 14:25:51;;;;;;;10.15;8.90;;;;;;;;;;5115849;27;20046;-67
2023/09/07 14:28:17;;;;;;;9.48;8.10;;;;;;;;;;5126760;27;20019;-59
2023/09/07 14:30:43;;;;;;;5.93;5.43;;;;;;;;;;5115700;27;20500;-59
2023/09/07 14:33:09;;;;;;;10.13;7.20;;;;;;;;;;5124566;27;20480;-60
2023/09/07 14:35:35;;;;;;;7.00;6.18;;;;;;;;;;5123147;27;20026;-65